createdAt,value
2018-07-05T00:00:49.551Z,3.40
2018-07-05T00:03:29.240Z,4.30
2018-07-05T00:06:08.376Z,3.50
2018-07-05T00:08:47.340Z,3.77
2018-07-05T00:11:26.240Z,3.93
2018-07-05T00:14:05.535Z,3.00
2018-07-05T00:16:45.032Z,4.03
2018-07-05T00:19:24.033Z,3.70
2018-07-05T00:22:02.847Z,3.80
2018-07-05T00:24:43.018Z,3.53
2018-07-05T00:27:22.004Z,3.70
2018-07-05T00:29:55.421Z,3.63
2018-07-05T00:32:34.080Z,4.00
2018-07-05T00:35:12.779Z,3.53
2018-07-05T00:37:51.860Z,3.60
2018-07-05T00:40:30.802Z,3.20
2018-07-05T00:43:09.658Z,4.20
2018-07-05T00:45:48.629Z,3.30
2018-07-05T00:48:27.533Z,3.47
2018-07-05T00:51:06.560Z,3.10
2018-07-05T00:53:45.470Z,3.40
2018-07-05T00:56:24.531Z,3.53
2018-07-05T00:59:03.488Z,3.37
2018-07-05T01:01:42.357Z,4.07
2018-07-05T01:04:21.243Z,3.70
2018-07-05T01:07:00.099Z,3.70
2018-07-05T01:09:39.029Z,4.47
2018-07-05T01:12:18.100Z,3.23
2018-07-05T01:14:57.971Z,3.77
2018-07-05T01:17:36.940Z,3.77
2018-07-05T01:20:15.886Z,3.50
2018-07-05T01:22:54.872Z,3.73
2018-07-05T01:25:33.818Z,4.10
2018-07-05T01:28:12.588Z,3.70
2018-07-05T01:30:51.660Z,3.60
2018-07-05T01:33:30.565Z,3.10
2018-07-05T01:36:09.514Z,3.53
2018-07-05T01:38:42.614Z,3.73
2018-07-05T01:41:21.549Z,3.60
2018-07-05T01:44:00.453Z,3.40
2018-07-05T01:46:39.493Z,3.43
2018-07-05T01:49:18.244Z,3.40
2018-07-05T01:51:57.040Z,3.37
2018-07-05T01:54:36.136Z,3.50
2018-07-05T01:57:15.048Z,3.80
2018-07-05T01:59:54.007Z,4.10
2018-07-05T02:02:32.841Z,3.80
2018-07-05T02:05:11.799Z,3.70
2018-07-05T02:07:50.697Z,3.47
2018-07-05T02:10:29.576Z,4.40
2018-07-05T02:13:08.379Z,3.63
2018-07-05T02:15:47.208Z,4.00
2018-07-05T02:18:26.148Z,4.10
2018-07-05T02:21:05.113Z,3.53
2018-07-05T02:23:44.081Z,3.10
2018-07-05T02:26:23.075Z,3.87
2018-07-05T02:29:01.967Z,4.33
2018-07-05T02:31:41.640Z,4.07
2018-07-05T02:34:20.546Z,4.40
2018-07-05T02:36:59.548Z,3.70
2018-07-05T02:39:44.297Z,3.80
2018-07-05T02:42:23.131Z,4.10
2018-07-05T02:45:02.077Z,4.00
2018-07-05T02:47:41.174Z,3.67
2018-07-05T02:50:20.126Z,3.80
2018-07-05T02:52:59.085Z,3.17
2018-07-05T02:55:37.990Z,3.80
2018-07-05T02:58:16.889Z,3.00
2018-07-05T03:00:55.890Z,3.40
2018-07-05T03:03:34.996Z,3.70
2018-07-05T03:06:13.997Z,3.43
2018-07-05T03:08:52.916Z,3.97
2018-07-05T03:11:31.792Z,3.00
2018-07-05T03:14:10.869Z,3.30
2018-07-05T03:16:49.652Z,3.17
2018-07-05T03:19:28.424Z,3.57
2018-07-05T03:22:07.160Z,3.67
2018-07-05T03:24:46.239Z,3.70
2018-07-05T03:27:25.219Z,3.53
2018-07-05T03:30:04.308Z,3.90
2018-07-05T03:32:43.214Z,4.23
2018-07-05T03:35:22.104Z,3.40
2018-07-05T03:38:00.928Z,3.67
2018-07-05T03:40:39.916Z,3.60
2018-07-05T03:43:13.022Z,3.07
2018-07-05T03:45:52.401Z,5.03
2018-07-05T03:48:25.348Z,4.20
2018-07-05T03:50:58.495Z,3.40
2018-07-05T03:53:37.302Z,4.53
2018-07-05T03:56:16.380Z,3.80
2018-07-05T03:58:55.220Z,4.10
2018-07-05T04:01:34.952Z,3.37
2018-07-05T04:04:13.644Z,3.77
2018-07-05T04:06:52.519Z,3.90
2018-07-05T04:09:31.435Z,3.60
2018-07-05T04:12:10.392Z,4.33
2018-07-05T04:14:49.296Z,4.13
2018-07-05T04:17:28.129Z,4.07
2018-07-05T04:20:07.172Z,3.43
2018-07-05T04:22:46.161Z,4.60
2018-07-05T04:25:25.311Z,3.53
2018-07-05T04:28:04.287Z,4.30
2018-07-05T04:30:43.265Z,5.20
2018-07-05T04:33:22.291Z,3.80
2018-07-05T04:36:01.401Z,4.83
2018-07-05T04:38:40.433Z,4.03
2018-07-05T04:41:19.370Z,3.97
2018-07-05T04:43:58.319Z,4.30
2018-07-05T04:46:37.241Z,4.73
2018-07-05T04:49:16.153Z,4.00
2018-07-05T04:51:55.051Z,4.13
2018-07-05T04:54:33.947Z,3.93
2018-07-05T04:57:13.053Z,5.00
2018-07-05T04:59:51.989Z,5.07
2018-07-05T05:02:25.160Z,6.20
2018-07-05T05:05:04.083Z,4.30
2018-07-05T05:07:42.572Z,4.23
2018-07-05T05:10:21.425Z,5.00
2018-07-05T05:13:00.434Z,4.73
2018-07-05T05:15:39.501Z,10.30
2018-07-05T05:18:18.645Z,19.40
2018-07-05T05:20:57.709Z,7.30
2018-07-05T05:23:36.668Z,14.67
2018-07-05T05:26:15.660Z,7.97
2018-07-05T05:28:54.623Z,5.00
2018-07-05T05:31:33.597Z,5.30
2018-07-05T05:34:12.487Z,5.70
2018-07-05T05:36:51.532Z,5.60
2018-07-05T05:39:30.451Z,5.30
2018-07-05T05:42:09.449Z,4.53
2018-07-05T05:44:48.410Z,5.13
2018-07-05T05:47:27.379Z,5.90
2018-07-05T05:50:06.341Z,5.70
2018-07-05T05:52:45.163Z,5.37
2018-07-05T05:55:24.139Z,5.77
2018-07-05T05:58:03.842Z,5.50
2018-07-05T06:00:42.744Z,4.93
2018-07-05T06:03:21.813Z,4.77
2018-07-05T06:06:00.816Z,9.47
2018-07-05T06:08:40.995Z,11.17
2018-07-05T06:21:05.149Z,5.43
2018-07-05T06:23:44.025Z,7.30
2018-07-05T06:26:17.129Z,5.90
2018-07-05T06:28:57.325Z,5.33
2018-07-05T06:31:36.065Z,4.40
2018-07-05T06:34:15.175Z,5.10
2018-07-05T06:36:54.151Z,5.20
2018-07-05T06:39:33.248Z,5.83
2018-07-05T06:42:12.268Z,5.83
2018-07-05T06:44:45.284Z,6.20
2018-07-05T06:47:18.463Z,4.90
2018-07-05T06:49:59.162Z,4.60
2018-07-05T07:02:23.788Z,4.37
2018-07-05T07:04:57.402Z,5.33
2018-07-05T07:07:36.848Z,4.47
2018-07-05T07:10:15.690Z,4.83
2018-07-05T07:12:54.953Z,5.23
2018-07-05T07:15:33.976Z,5.70
2018-07-05T07:18:13.873Z,4.80
2018-07-05T07:20:52.685Z,5.00
2018-07-05T07:23:31.452Z,5.30
2018-07-05T07:26:10.552Z,5.93
2018-07-05T07:28:49.337Z,3.83
2018-07-05T07:31:28.417Z,4.80
2018-07-05T07:34:07.290Z,4.30
2018-07-05T07:36:46.174Z,4.30
2018-07-05T07:39:25.597Z,4.87
2018-07-05T07:41:52.019Z,4.13
2018-07-05T07:44:19.970Z,4.80
2018-07-05T07:46:47.522Z,5.00
2018-07-05T07:49:14.370Z,4.30
2018-07-05T07:51:40.809Z,5.03
2018-07-05T07:54:07.259Z,5.50
2018-07-05T07:56:33.723Z,4.60
2018-07-05T07:59:00.202Z,5.07
2018-07-05T08:01:26.634Z,5.27
2018-07-05T08:03:53.608Z,3.73
2018-07-05T08:06:20.090Z,5.27
2018-07-05T08:08:46.759Z,4.77
2018-07-05T08:11:13.213Z,5.23
2018-07-05T08:13:39.620Z,5.10
2018-07-05T08:16:06.062Z,4.93
2018-07-05T08:18:32.465Z,4.30
2018-07-05T08:20:58.909Z,4.60
2018-07-05T08:23:25.342Z,4.77
2018-07-05T08:25:52.250Z,4.50
2018-07-05T08:28:18.648Z,4.00
2018-07-05T08:30:45.960Z,4.70
2018-07-05T08:33:12.390Z,4.60
2018-07-05T08:35:40.994Z,4.83
2018-07-05T08:38:07.390Z,4.50
2018-07-05T08:40:33.826Z,4.23
2018-07-05T08:43:03.265Z,4.80
2018-07-05T08:45:30.445Z,4.37
2018-07-05T08:47:56.853Z,4.10
2018-07-05T08:50:23.943Z,4.00
2018-07-05T08:52:50.367Z,4.00
2018-07-05T08:55:16.772Z,4.90
2018-07-05T08:57:43.212Z,4.30
2018-07-05T09:00:09.631Z,3.77
2018-07-05T09:02:36.131Z,4.30
2018-07-05T09:05:02.544Z,3.90
2018-07-05T09:07:29.004Z,3.70
2018-07-05T09:09:55.430Z,4.33
2018-07-05T09:12:22.089Z,4.63
2018-07-05T09:14:48.520Z,4.30
2018-07-05T09:17:14.997Z,3.83
2018-07-05T09:29:26.461Z,4.57
2018-07-05T09:31:53.021Z,4.37
2018-07-05T09:34:19.504Z,5.07
2018-07-05T09:36:45.952Z,4.80
2018-07-05T09:39:12.585Z,4.73
2018-07-05T09:41:39.046Z,5.77
2018-07-05T09:44:05.878Z,5.90
2018-07-05T09:46:32.341Z,5.60
2018-07-05T09:48:59.287Z,5.77
2018-07-05T09:51:25.732Z,4.97
2018-07-05T09:53:52.201Z,6.10
2018-07-05T09:56:18.654Z,4.90
2018-07-05T09:58:45.104Z,5.90
2018-07-05T10:01:11.558Z,4.67
2018-07-05T10:03:38.175Z,6.50
2018-07-05T10:06:05.694Z,6.20
2018-07-05T10:08:32.423Z,4.50
2018-07-05T10:10:59.593Z,5.70
2018-07-05T10:13:26.205Z,4.90
2018-07-05T10:15:52.762Z,5.00
2018-07-05T10:18:19.260Z,4.30
2018-07-05T10:20:45.656Z,4.60
2018-07-05T10:23:12.564Z,5.20
2018-07-05T10:25:39.007Z,5.10
2018-07-05T10:28:05.979Z,5.33
2018-07-05T10:30:44.877Z,5.10
2018-07-05T10:33:23.955Z,4.37
2018-07-05T10:35:50.418Z,5.10
2018-07-05T10:38:16.837Z,4.90
2018-07-05T10:40:56.865Z,5.00
2018-07-05T10:43:35.912Z,4.90
2018-07-05T10:46:09.205Z,5.10
2018-07-05T10:48:48.088Z,5.17
2018-07-05T10:51:27.037Z,5.07
2018-07-05T10:54:05.892Z,5.33
2018-07-05T10:56:45.165Z,5.17
2018-07-05T10:59:24.034Z,5.13
2018-07-05T11:02:03.058Z,5.03
2018-07-05T11:04:42.953Z,5.80
2018-07-05T11:07:22.024Z,6.33
2018-07-05T11:10:01.395Z,6.13
2018-07-05T11:12:40.921Z,5.60
2018-07-05T11:15:19.943Z,5.80
2018-07-05T11:17:59.111Z,5.50
2018-07-05T11:20:37.944Z,6.23
2018-07-05T11:23:16.825Z,4.80
2018-07-05T11:25:55.929Z,4.70
2018-07-05T11:28:35.744Z,4.77
2018-07-05T11:31:14.638Z,5.07
2018-07-05T11:33:53.604Z,4.43
2018-07-05T11:36:32.708Z,3.93
2018-07-05T11:39:11.758Z,4.40
2018-07-05T11:41:51.298Z,4.90
2018-07-05T11:44:30.299Z,4.47
2018-07-05T11:47:09.394Z,5.43
2018-07-05T11:49:48.357Z,4.43
2018-07-05T11:52:21.596Z,4.47
2018-07-05T11:55:00.512Z,4.93
2018-07-05T12:07:24.489Z,4.60
2018-07-05T12:10:03.441Z,4.77
2018-07-05T12:12:42.276Z,4.30
2018-07-05T12:15:21.630Z,4.67
2018-07-05T12:18:00.570Z,4.43
2018-07-05T12:20:39.754Z,4.40
2018-07-05T12:23:18.962Z,4.40
2018-07-05T12:25:58.109Z,4.13
2018-07-05T12:28:36.996Z,4.67
2018-07-05T12:31:16.110Z,5.03
2018-07-05T12:33:54.996Z,5.03
2018-07-05T12:36:34.042Z,4.60
2018-07-05T12:48:58.344Z,3.93
2018-07-05T12:51:38.037Z,3.93
2018-07-05T12:54:16.847Z,4.17
2018-07-05T12:56:55.825Z,3.80
2018-07-05T12:59:34.784Z,3.57
2018-07-05T13:02:13.898Z,3.33
2018-07-05T13:04:53.176Z,4.23
2018-07-05T13:07:32.162Z,3.77
2018-07-05T13:10:11.436Z,3.00
2018-07-05T13:12:50.361Z,3.40
2018-07-05T13:15:29.350Z,5.03
2018-07-05T13:18:09.369Z,3.10
2018-07-05T13:20:48.484Z,3.30
2018-07-05T13:23:27.560Z,3.17
2018-07-05T13:26:06.673Z,3.77
2018-07-05T13:28:45.744Z,3.40
2018-07-05T13:31:24.528Z,4.47
2018-07-05T13:34:03.484Z,4.10
2018-07-05T13:36:42.379Z,3.70
2018-07-05T13:39:21.331Z,4.20
2018-07-05T13:42:00.645Z,4.60
2018-07-05T13:44:39.617Z,4.23
2018-07-05T13:47:18.600Z,4.10
2018-07-05T13:49:58.542Z,4.03
2018-07-05T13:52:37.546Z,4.10
2018-07-05T13:55:17.216Z,4.10
2018-07-05T13:57:56.059Z,4.27
2018-07-05T14:00:35.191Z,3.80
2018-07-05T14:03:14.313Z,4.60
2018-07-05T14:05:53.190Z,3.73
2018-07-05T14:08:32.342Z,3.30
2018-07-05T14:11:11.350Z,3.30
2018-07-05T14:13:50.351Z,4.00
2018-07-05T14:16:29.289Z,3.60
2018-07-05T14:19:08.246Z,3.30
2018-07-05T14:21:47.293Z,2.93
2018-07-05T14:24:26.907Z,3.90
2018-07-05T14:27:06.160Z,3.30
2018-07-05T14:29:45.217Z,4.00
2018-07-05T14:32:24.254Z,3.70
2018-07-05T14:35:03.376Z,3.57
2018-07-05T14:37:42.503Z,3.90
2018-07-05T14:40:22.004Z,3.50
2018-07-05T14:43:01.108Z,3.23
2018-07-05T14:45:40.133Z,4.90
2018-07-05T14:48:19.160Z,3.97
2018-07-05T14:50:58.142Z,4.07
2018-07-05T14:53:37.253Z,3.73
2018-07-05T14:56:16.258Z,3.37
2018-07-05T14:58:55.338Z,3.70
2018-07-05T15:01:34.469Z,3.67
2018-07-05T15:04:13.535Z,3.50
2018-07-05T15:06:52.436Z,3.73
2018-07-05T15:09:31.416Z,3.77
2018-07-05T15:12:10.371Z,4.00
2018-07-05T15:14:49.388Z,4.20
2018-07-05T15:17:28.525Z,4.40
2018-07-05T15:20:07.673Z,4.03
2018-07-05T15:22:46.731Z,3.70
2018-07-05T15:25:25.851Z,3.90
2018-07-05T15:28:04.836Z,3.93
2018-07-05T15:30:43.913Z,4.17
2018-07-05T15:33:22.883Z,4.20
2018-07-05T15:36:01.738Z,3.50
2018-07-05T15:38:40.681Z,4.27
2018-07-05T15:41:19.606Z,3.07
2018-07-05T15:43:58.607Z,3.30
2018-07-05T15:46:37.625Z,3.23
2018-07-05T15:49:17.315Z,5.17
2018-07-05T15:51:51.090Z,5.80
2018-07-05T15:54:30.177Z,3.57
2018-07-05T15:57:09.271Z,3.87
2018-07-05T15:59:48.221Z,3.60
2018-07-05T16:02:27.128Z,3.80
2018-07-05T16:05:06.010Z,4.73
2018-07-05T16:07:44.718Z,4.30
2018-07-05T16:10:23.796Z,3.73
2018-07-05T16:13:02.690Z,4.70
2018-07-05T16:15:41.618Z,4.30
2018-07-05T16:18:20.714Z,5.30
2018-07-05T16:20:59.644Z,4.80
2018-07-05T16:23:38.538Z,8.07
2018-07-05T16:26:17.491Z,9.37
2018-07-05T16:28:57.152Z,7.00
2018-07-05T16:31:36.177Z,5.40
2018-07-05T16:34:15.216Z,5.10
2018-07-05T16:36:54.040Z,7.00
2018-07-05T16:39:33.086Z,8.03
2018-07-05T16:42:12.394Z,5.60
2018-07-05T16:44:51.320Z,4.97
2018-07-05T16:47:30.165Z,6.43
2018-07-05T16:50:09.132Z,5.57
2018-07-05T16:52:48.080Z,5.73
2018-07-05T16:55:27.112Z,6.17
2018-07-05T16:58:05.991Z,5.80
2018-07-05T17:00:45.030Z,5.37
2018-07-05T17:03:24.761Z,5.80
2018-07-05T17:06:03.724Z,6.40
2018-07-05T17:08:42.686Z,6.50
2018-07-05T17:11:22.281Z,7.00
2018-07-05T17:14:01.344Z,6.67
2018-07-05T17:16:34.427Z,7.10
2018-07-05T17:19:13.394Z,8.30
2018-07-05T17:21:52.421Z,8.00
2018-07-05T17:24:31.205Z,7.67
2018-07-05T17:27:05.195Z,6.03
2018-07-05T17:29:44.160Z,7.23
2018-07-05T17:32:23.092Z,7.30
2018-07-05T17:35:02.128Z,8.90
2018-07-05T17:37:41.181Z,8.40
2018-07-05T17:40:20.117Z,7.47
2018-07-05T17:42:59.164Z,6.20
2018-07-05T17:45:38.123Z,7.17
2018-07-05T17:48:17.169Z,6.13
2018-07-05T17:50:56.092Z,6.83
2018-07-05T17:53:35.901Z,8.90
2018-07-05T17:56:14.784Z,7.00
2018-07-05T17:58:54.620Z,8.20
2018-07-05T18:01:33.601Z,8.40
2018-07-05T18:04:13.739Z,7.23
2018-07-05T18:06:52.822Z,7.73
2018-07-05T18:09:31.875Z,7.90
2018-07-05T18:12:10.741Z,8.80
2018-07-05T18:14:49.739Z,8.73
2018-07-05T18:17:28.683Z,8.23
2018-07-05T18:20:07.777Z,8.20
2018-07-05T18:22:46.799Z,7.90
2018-07-05T18:25:25.750Z,7.30
2018-07-05T18:28:04.961Z,7.67
2018-07-05T18:30:43.881Z,7.20
2018-07-05T18:33:22.779Z,7.80
2018-07-05T18:36:01.899Z,7.33
2018-07-05T18:38:40.920Z,8.00
2018-07-05T18:41:19.882Z,8.20
2018-07-05T18:43:58.852Z,10.83
2018-07-05T18:46:37.797Z,9.43
2018-07-05T18:49:17.701Z,8.43
2018-07-05T18:51:57.803Z,10.27
2018-07-05T18:54:37.938Z,8.00
2018-07-05T18:57:18.004Z,7.77
2018-07-05T18:59:56.998Z,7.83
2018-07-05T19:02:36.298Z,8.90
2018-07-05T19:05:15.766Z,8.67
2018-07-05T19:07:55.606Z,7.87
2018-07-05T19:10:35.869Z,7.90
2018-07-05T19:13:14.896Z,7.77
2018-07-05T19:15:54.597Z,8.17
2018-07-05T19:18:28.356Z,8.07
2018-07-05T19:21:09.581Z,8.27
2018-07-05T19:23:48.429Z,8.73
2018-07-05T19:26:28.064Z,8.23
2018-07-05T19:29:07.313Z,9.20
2018-07-05T19:31:46.188Z,8.33
2018-07-05T19:34:25.246Z,21.50
2018-07-05T19:37:04.264Z,21.00
2018-07-05T19:39:43.356Z,18.10
2018-07-05T19:42:22.501Z,12.90
2018-07-05T19:45:01.234Z,10.00
2018-07-05T19:47:40.295Z,11.40
2018-07-05T19:50:19.560Z,9.70
2018-07-05T19:52:58.611Z,11.27
2018-07-05T19:55:38.041Z,10.60
2018-07-05T19:58:17.052Z,8.80
2018-07-05T20:00:56.272Z,9.33
2018-07-05T20:03:36.162Z,9.03
2018-07-05T20:06:15.499Z,8.60
2018-07-05T20:08:54.710Z,8.83
2018-07-05T20:11:33.767Z,8.83
2018-07-05T20:14:13.014Z,9.30
2018-07-05T20:16:51.890Z,9.20
2018-07-05T20:19:30.874Z,9.30
2018-07-05T20:22:15.732Z,8.37
2018-07-05T20:24:54.743Z,7.60
2018-07-05T20:27:33.530Z,9.10
2018-07-05T20:30:13.140Z,8.63
2018-07-05T20:32:52.846Z,8.80
2018-07-05T20:35:31.881Z,8.30
2018-07-05T20:38:10.803Z,9.23
2018-07-05T20:40:49.840Z,8.00
2018-07-05T20:43:29.058Z,9.33
2018-07-05T20:46:08.117Z,10.57
2018-07-05T20:48:46.995Z,9.77
2018-07-05T20:51:26.721Z,8.40
2018-07-05T20:54:05.730Z,8.20
2018-07-05T20:56:44.670Z,7.40
2018-07-05T20:59:23.776Z,7.30
2018-07-05T21:02:03.802Z,7.97
2018-07-05T21:04:43.525Z,9.00
2018-07-05T21:07:22.549Z,7.77
2018-07-05T21:10:01.542Z,7.23
2018-07-05T21:12:40.560Z,7.13
2018-07-05T21:15:19.539Z,7.40
2018-07-05T21:17:58.512Z,8.57
2018-07-05T21:20:38.115Z,13.20
2018-07-05T21:23:17.356Z,11.97
2018-07-05T21:25:57.278Z,13.43
2018-07-05T21:28:36.304Z,14.67
2018-07-05T21:31:15.515Z,8.70
2018-07-05T21:33:54.521Z,7.57
2018-07-05T21:36:33.677Z,8.10
2018-07-05T21:39:12.643Z,8.27
2018-07-05T21:41:51.771Z,7.80
2018-07-05T21:44:24.971Z,8.23
2018-07-05T21:47:03.886Z,7.90
2018-07-05T21:49:43.002Z,8.13
2018-07-05T21:52:22.017Z,8.27
2018-07-05T21:55:01.076Z,7.90
2018-07-05T21:57:39.999Z,7.83
2018-07-05T22:00:19.130Z,8.40
2018-07-05T22:02:58.139Z,10.60
2018-07-05T22:05:37.583Z,9.10
2018-07-05T22:08:16.444Z,9.50
2018-07-05T22:10:56.633Z,8.50
2018-07-05T22:13:35.634Z,8.77
2018-07-05T22:16:08.922Z,8.10
2018-07-05T22:18:53.794Z,10.23
2018-07-05T22:21:37.808Z,9.83
2018-07-05T22:24:23.488Z,10.00
2018-07-05T22:27:03.815Z,8.90
2018-07-05T22:29:49.582Z,9.20
2018-07-05T22:32:29.322Z,9.93
2018-07-05T22:35:09.918Z,10.67
2018-07-05T22:37:49.083Z,10.00
2018-07-05T22:40:28.446Z,9.60
2018-07-05T22:43:07.728Z,9.40
2018-07-05T22:45:46.990Z,10.23
2018-07-05T22:48:25.868Z,9.50
2018-07-05T22:51:05.192Z,11.33
2018-07-05T22:53:38.400Z,11.30
2018-07-05T22:56:17.342Z,10.27
2018-07-05T22:58:56.386Z,11.57
2018-07-05T23:01:35.279Z,9.80
2018-07-05T23:04:14.307Z,10.70
2018-07-05T23:06:54.354Z,10.43
2018-07-05T23:09:33.116Z,10.57
2018-07-05T23:12:12.137Z,10.33
2018-07-05T23:14:51.869Z,12.53
2018-07-05T23:17:30.868Z,10.90
2018-07-05T23:20:11.439Z,12.10
2018-07-05T23:22:50.497Z,13.23
2018-07-05T23:25:29.359Z,13.53
2018-07-05T23:28:08.287Z,11.80
2018-07-05T23:30:47.386Z,12.47
2018-07-05T23:33:26.835Z,12.97
2018-07-05T23:36:05.988Z,13.03
2018-07-05T23:38:44.901Z,12.47
2018-07-05T23:41:23.959Z,12.87
2018-07-05T23:44:03.016Z,12.40
2018-07-05T23:46:42.884Z,13.47
2018-07-05T23:59:11.900Z,13.20
